Time;durP1;ratioP1;P1;durP2;ratioP2;P2;SDS_P1;SDS_P2;PMS_P1;PMS_P2;Temp;Humidity;BMP_temperature;BMP_pressure;BME280_temperature;BME280_humidity;BME280_pressure;Samples;Min_cycle;Max_cycle;Signal;HPM_P1;HPM_P2
2021/11/14 00:01:54;;;;;;;17.13;9.82;;;;;;;8.43;100.00;100929.44;5169040;28;20022;-78
2021/11/14 00:04:25;;;;;;;19.40;10.63;;;;;;;8.37;100.00;100937.38;5159901;28;20121;-78
2021/11/14 00:06:55;;;;;;;22.63;10.57;;;;;;;8.26;100.00;100931.53;5169035;28;20029;-78
2021/11/14 00:09:28;;;;;;;17.30;10.75;;;;;;;8.14;100.00;100934.34;5150298;28;20277;-78
2021/11/14 00:11:58;;;;;;;21.27;10.50;;;;;;;8.22;100.00;100937.69;5168738;28;20215;-78
2021/11/14 00:14:28;;;;;;;18.77;10.80;;;;;;;8.13;100.00;100932.63;5171968;28;20030;-78
2021/11/14 00:16:59;;;;;;;18.85;9.55;;;;;;;8.13;100.00;100940.44;5168403;28;20097;-78
2021/11/14 00:19:29;;;;;;;19.00;10.95;;;;;;;8.18;100.00;100933.44;5169039;28;20030;-78
2021/11/14 00:22:00;;;;;;;19.25;10.27;;;;;;;8.36;100.00;100935.66;5163614;28;20270;-78
2021/11/14 00:24:30;;;;;;;18.52;9.93;;;;;;;8.26;100.00;100938.47;5164213;28;20089;-78
2021/11/14 00:27:01;;;;;;;18.08;10.60;;;;;;;8.28;100.00;100934.97;5163469;28;20026;-78
2021/11/14 00:29:31;;;;;;;19.60;10.75;;;;;;;8.29;100.00;100931.47;5168714;28;20032;-78
2021/11/14 00:32:02;;;;;;;17.55;9.40;;;;;;;8.26;100.00;100944.56;5167700;28;20069;-78
2021/11/14 00:34:35;;;;;;;18.58;11.00;;;;;;;8.21;100.00;100948.97;5169166;28;20040;-78
2021/11/14 00:37:06;;;;;;;20.65;11.02;;;;;;;8.23;100.00;100946.34;5168569;28;20018;-78
2021/11/14 00:39:36;;;;;;;18.88;10.88;;;;;;;8.24;100.00;100937.66;5166703;28;20428;-78
2021/11/14 00:42:07;;;;;;;17.77;10.23;;;;;;;8.20;100.00;100936.84;5170724;28;20080;-78
2021/11/14 00:44:37;;;;;;;16.98;9.45;;;;;;;8.21;100.00;100943.78;5168371;28;20018;-78
2021/11/14 00:47:07;;;;;;;16.65;10.55;;;;;;;8.23;100.00;100938.53;5164078;28;20026;-78
2021/11/14 00:49:38;;;;;;;18.42;10.07;;;;;;;8.24;100.00;100943.69;5168701;28;20057;-78
2021/11/14 00:52:08;;;;;;;19.17;10.52;;;;;;;8.16;100.00;100940.38;5170167;28;20034;-78
2021/11/14 00:54:39;;;;;;;18.05;10.15;;;;;;;8.28;100.00;100953.19;5166645;28;20029;-78
2021/11/14 00:57:09;;;;;;;17.17;9.95;;;;;;;8.22;100.00;100947.25;5168718;28;20030;-78
2021/11/14 00:59:39;;;;;;;18.08;10.23;;;;;;;8.29;100.00;100959.25;5169417;28;20041;-78
2021/11/14 01:02:10;;;;;;;24.30;10.90;;;;;;;8.47;100.00;100951.94;5166134;28;20030;-78
2021/11/14 01:04:40;;;;;;;16.40;10.23;;;;;;;8.47;100.00;100957.13;5160490;28;20094;-78
2021/11/14 01:07:10;;;;;;;18.33;10.10;;;;;;;8.39;100.00;100959.03;5168902;28;20029;-78
2021/11/14 01:09:41;;;;;;;19.20;10.73;;;;;;;8.36;100.00;100964.28;5167785;28;20026;-79
2021/11/14 01:12:11;;;;;;;16.73;10.27;;;;;;;8.34;100.00;100966.06;5169546;28;20483;-79
2021/11/14 01:14:41;;;;;;;17.95;11.07;;;;;;;8.21;100.00;100975.00;5169640;28;20557;-79
2021/11/14 01:17:12;;;;;;;20.73;11.60;;;;;;;8.23;100.00;100968.03;5169679;28;20036;-79
2021/11/14 01:19:42;;;;;;;22.73;11.70;;;;;;;8.37;100.00;100971.22;5157330;28;20400;-79
2021/11/14 01:22:15;;;;;;;19.60;11.20;;;;;;;8.22;100.00;100981.94;5165379;28;20388;-78
2021/11/14 01:24:45;;;;;;;20.42;11.30;;;;;;;8.40;100.00;100976.34;5167490;28;20057;-79
2021/11/14 01:27:15;;;;;;;19.77;11.20;;;;;;;8.45;100.00;100979.75;5168790;28;20115;-79
2021/11/14 01:29:46;;;;;;;21.15;12.25;;;;;;;8.37;100.00;100980.78;5152844;28;20042;-79
2021/11/14 01:32:16;;;;;;;21.77;12.45;;;;;;;8.45;100.00;100986.69;5165197;28;20033;-78
2021/11/14 01:34:47;;;;;;;24.08;12.23;;;;;;;8.42;100.00;100987.59;5162544;28;20037;-78
2021/11/14 01:37:17;;;;;;;24.25;12.90;;;;;;;8.40;100.00;100994.59;5167579;28;20025;-79
2021/11/14 01:39:47;;;;;;;21.08;11.90;;;;;;;8.30;100.00;101000.88;5168197;28;20022;-78
2021/11/14 01:42:18;;;;;;;25.30;12.85;;;;;;;8.40;100.00;101002.41;5169879;28;20392;-78
2021/11/14 01:44:48;;;;;;;24.10;13.55;;;;;;;8.26;100.00;101009.66;5170906;28;20034;-78
2021/11/14 01:47:18;;;;;;;24.38;13.07;;;;;;;8.21;100.00;101006.25;5168247;28;20105;-78
2021/11/14 01:49:49;;;;;;;23.35;13.20;;;;;;;8.20;100.00;101012.34;5170935;28;20415;-78
2021/11/14 01:52:22;;;;;;;30.02;15.27;;;;;;;8.35;100.00;101006.84;5168887;28;20124;-78
2021/11/14 01:54:53;;;;;;;28.10;13.88;;;;;;;8.45;100.00;101013.59;5170765;28;20030;-78
2021/11/14 01:57:24;;;;;;;25.05;13.85;;;;;;;8.49;100.00;101020.47;5168124;28;20022;-78
2021/11/14 01:59:54;;;;;;;27.10;14.45;;;;;;;8.53;100.00;101016.91;5171104;28;20029;-78
2021/11/14 02:02:25;;;;;;;28.73;14.63;;;;;;;8.39;100.00;101016.31;5164228;28;20023;-77
2021/11/14 02:04:55;;;;;;;27.80;15.65;;;;;;;8.50;100.00;101014.38;5162851;28;20087;-78
2021/11/14 02:07:26;;;;;;;28.98;15.55;;;;;;;8.28;100.00;101028.69;5166408;28;20026;-78
2021/11/14 02:09:56;;;;;;;30.83;14.95;;;;;;;8.17;100.00;101030.59;5169709;28;20026;-78
2021/11/14 02:12:26;;;;;;;30.00;15.48;;;;;;;8.35;100.00;101029.44;5167605;28;20124;-78
2021/11/14 02:14:57;;;;;;;26.65;15.30;;;;;;;8.31;100.00;101030.38;5171703;28;20037;-78
2021/11/14 02:17:27;;;;;;;28.10;15.48;;;;;;;8.21;100.00;101029.69;5163036;28;20038;-78
2021/11/14 02:19:58;;;;;;;27.50;15.40;;;;;;;8.25;100.00;101030.50;5171856;28;20430;-78
2021/11/14 02:22:28;;;;;;;28.63;15.75;;;;;;;8.08;100.00;101030.75;5167485;28;20049;-78
2021/11/14 02:25:00;;;;;;;30.55;16.23;;;;;;;8.16;100.00;101026.28;5171605;28;20021;-78
2021/11/14 02:27:30;;;;;;;30.45;16.20;;;;;;;8.08;100.00;101030.75;5167299;28;20416;-78
2021/11/14 02:30:03;;;;;;;30.15;16.83;;;;;;;8.01;100.00;101041.34;5169413;28;20029;-78
2021/11/14 02:32:34;;;;;;;33.90;16.88;;;;;;;7.95;100.00;101042.31;5165019;28;20054;-78
2021/11/14 02:35:06;;;;;;;32.78;17.77;;;;;;;7.92;100.00;101044.09;5165819;28;20033;-78
2021/11/14 02:37:37;;;;;;;38.83;18.40;;;;;;;7.87;100.00;101053.72;5169344;28;20477;-78
2021/11/14 02:40:09;;;;;;;37.70;17.85;;;;;;;7.84;100.00;101049.41;5169936;28;20387;-78
2021/11/14 02:42:41;;;;;;;40.63;18.75;;;;;;;7.73;100.00;101048.72;5172162;28;20592;-77
2021/11/14 02:45:11;;;;;;;39.70;19.33;;;;;;;7.73;100.00;101046.13;5172706;28;20514;-78
2021/11/14 02:47:41;;;;;;;38.47;19.88;;;;;;;7.77;100.00;101054.75;5172369;28;20057;-77
2021/11/14 02:50:12;;;;;;;39.53;20.52;;;;;;;7.81;100.00;101059.00;5172947;28;20104;-78
2021/11/14 02:52:42;;;;;;;40.67;22.13;;;;;;;7.70;100.00;101058.34;5174186;28;20026;-77
2021/11/14 02:55:16;;;;;;;46.33;22.35;;;;;;;7.72;100.00;101059.19;5173208;28;20026;-77
2021/11/14 02:57:47;;;;;;;44.25;22.50;;;;;;;7.78;100.00;101061.66;5171444;28;20557;-78
2021/11/14 03:00:21;;;;;;;50.28;22.23;;;;;;;7.75;100.00;101061.72;5173454;28;20073;-77
2021/11/14 03:02:52;;;;;;;45.97;21.33;;;;;;;7.78;100.00;101061.66;5162764;28;20358;-78
2021/11/14 03:05:22;;;;;;;43.20;21.00;;;;;;;7.79;100.00;101064.25;5165544;28;20088;-78
2021/11/14 03:07:53;;;;;;;45.42;21.75;;;;;;;7.76;100.00;101063.44;5170336;28;20022;-77
2021/11/14 03:10:27;;;;;;;39.88;20.70;;;;;;;7.81;100.00;101075.50;5170427;28;20023;-78
2021/11/14 03:13:04;;;;;;;45.35;20.77;;;;;;;8.00;100.00;101063.00;5166880;28;20503;-78
2021/11/14 03:15:39;;;;;;;38.65;19.13;;;;;;;7.91;100.00;101071.84;5172436;28;20462;-77
2021/11/14 03:18:10;;;;;;;46.45;21.08;;;;;;;7.94;100.00;101069.22;5172515;28;20049;-77
2021/11/14 03:20:43;;;;;;;41.30;20.35;;;;;;;7.92;100.00;101076.19;5171763;28;20451;-78
2021/11/14 03:23:15;;;;;;;41.58;20.42;;;;;;;7.89;100.00;101076.22;5153949;28;20038;-78
2021/11/14 03:25:46;;;;;;;39.58;19.52;;;;;;;7.97;100.00;101082.16;5171454;28;20121;-78
2021/11/14 03:28:17;;;;;;;41.33;21.15;;;;;;;7.88;100.00;101079.69;5171975;28;20022;-78
2021/11/14 03:30:53;;;;;;;43.97;21.30;;;;;;;7.87;100.00;101082.34;5171191;28;20081;-78
2021/11/14 03:33:24;;;;;;;41.85;20.90;;;;;;;7.81;100.00;101088.50;5161652;28;20387;-77
2021/11/14 03:36:04;;;;;;;41.22;19.67;;;;;;;7.80;100.00;101085.91;5169432;28;20041;-77
2021/11/14 03:38:46;;;;;;;45.75;21.83;;;;;;;7.72;100.00;101091.25;5167042;28;20018;-78
2021/11/14 03:41:24;;;;;;;49.63;22.30;;;;;;;7.75;100.00;101092.94;5169685;28;20042;-78
2021/11/14 03:43:55;;;;;;;49.47;21.83;;;;;;;7.74;100.00;101099.03;5172507;28;20030;-77
2021/11/14 03:46:26;;;;;;;47.53;21.40;;;;;;;7.70;100.00;101100.81;5169133;28;20038;-78
2021/11/14 03:48:57;;;;;;;46.40;22.35;;;;;;;7.81;100.00;101093.72;5173355;28;20037;-78
2021/11/14 03:51:27;;;;;;;43.30;20.70;;;;;;;7.74;100.00;101099.88;5169631;28;20049;-77
2021/11/14 03:53:58;;;;;;;47.30;21.23;;;;;;;7.69;100.00;101095.66;5172930;28;20017;-77
2021/11/14 03:56:31;;;;;;;44.75;20.98;;;;;;;7.76;100.00;101098.13;5169992;28;20068;-77
2021/11/14 03:59:02;;;;;;;44.70;20.77;;;;;;;7.74;100.00;101097.28;5173871;28;20030;-78
2021/11/14 04:01:32;;;;;;;44.30;21.00;;;;;;;7.74;100.00;101104.22;5170149;28;20037;-78
2021/11/14 04:04:03;;;;;;;48.08;20.88;;;;;;;7.79;100.00;101100.69;5159843;28;20105;-77
2021/11/14 04:06:33;;;;;;;45.92;21.13;;;;;;;7.84;100.00;101106.66;5170681;28;20381;-77
2021/11/14 04:09:03;;;;;;;41.05;19.88;;;;;;;7.82;100.00;101105.84;5166848;28;20033;-78
2021/11/14 04:11:34;;;;;;;42.17;20.75;;;;;;;7.87;100.00;101108.38;5170224;28;20053;-78
2021/11/14 04:14:04;;;;;;;45.75;20.40;;;;;;;8.09;100.00;101109.72;5170614;28;20113;-77
2021/11/14 04:16:35;;;;;;;41.13;19.67;;;;;;;8.01;100.00;101115.06;5172798;28;20034;-77
2021/11/14 04:19:05;;;;;;;41.15;20.58;;;;;;;8.00;100.00;101120.28;5170661;28;20034;-78
2021/11/14 04:21:36;;;;;;;42.55;20.70;;;;;;;8.01;100.00;101117.66;5172899;28;20068;-78
2021/11/14 04:24:06;;;;;;;39.33;20.17;;;;;;;7.95;100.00;101124.69;5170572;28;20113;-77
2021/11/14 04:26:37;;;;;;;41.25;19.92;;;;;;;8.03;100.00;101121.09;5172315;28;20475;-77
2021/11/14 04:29:08;;;;;;;41.53;20.45;;;;;;;7.88;100.00;101115.28;5171598;28;20116;-77
2021/11/14 04:31:38;;;;;;;40.72;20.63;;;;;;;7.97;100.00;101126.41;5168398;28;20109;-77
2021/11/14 04:34:08;;;;;;;43.22;20.45;;;;;;;7.87;100.00;101135.22;5143178;28;20030;-78
2021/11/14 04:36:39;;;;;;;43.22;20.80;;;;;;;8.11;100.00;101132.25;5170969;28;20030;-77
2021/11/14 04:39:09;;;;;;;37.20;19.40;;;;;;;7.99;100.00;101127.25;5168382;28;20026;-77
2021/11/14 04:41:39;;;;;;;41.50;20.55;;;;;;;8.23;100.00;101133.81;5171679;28;20066;-77
2021/11/14 04:44:10;;;;;;;40.47;20.00;;;;;;;8.15;100.00;101130.44;5170835;28;20502;-77
2021/11/14 04:46:40;;;;;;;34.55;19.35;;;;;;;8.14;100.00;101129.59;5170799;28;20101;-77
2021/11/14 04:49:10;;;;;;;37.25;19.42;;;;;;;8.25;100.00;101127.66;5170497;28;20042;-77
2021/11/14 04:51:42;;;;;;;41.70;19.00;;;;;;;8.13;100.00;101135.69;5170965;28;20062;-78
2021/11/14 04:54:13;;;;;;;38.95;19.30;;;;;;;8.07;100.00;101138.38;5170615;28;20391;-77
2021/11/14 04:59:18;;;;;;;40.55;20.63;;;;;;;8.23;100.00;101146.84;5165321;28;20050;-80
2021/11/14 05:01:49;;;;;;;40.25;20.15;;;;;;;8.24;100.00;101149.38;5168086;28;20053;-80
2021/11/14 05:04:19;;;;;;;37.28;19.45;;;;;;;8.09;100.00;101149.63;5168773;28;20034;-80
2021/11/14 05:06:50;;;;;;;37.17;18.88;;;;;;;8.13;100.00;101156.50;5172559;28;20075;-80
2021/11/14 05:09:20;;;;;;;38.95;20.52;;;;;;;8.12;100.00;101157.41;5154356;28;20519;-82
2021/11/14 05:11:51;;;;;;;38.75;20.05;;;;;;;8.26;100.00;101165.88;5175511;28;20083;-82
2021/11/14 05:14:21;;;;;;;39.28;18.90;;;;;;;8.25;100.00;101158.91;5154601;28;20289;-82
2021/11/14 05:16:51;;;;;;;39.33;19.77;;;;;;;8.28;100.00;101161.50;5158503;28;20021;-82
2021/11/14 05:19:22;;;;;;;38.95;19.58;;;;;;;8.34;100.00;101168.31;5173433;28;20461;-82
2021/11/14 05:21:52;;;;;;;38.47;18.95;;;;;;;8.13;100.00;101168.66;5159291;28;20029;-82
2021/11/14 05:24:22;;;;;;;37.55;19.25;;;;;;;8.13;100.00;101171.25;5154003;28;20218;-82
2021/11/14 05:26:54;;;;;;;37.38;18.67;;;;;;;8.11;100.00;101175.63;5175480;28;20372;-82
2021/11/14 05:29:25;;;;;;;38.15;19.65;;;;;;;8.13;100.00;101173.84;5154492;28;20029;-82
2021/11/14 05:31:55;;;;;;;34.88;18.08;;;;;;;8.19;100.00;101177.25;5153506;28;20480;-82
2021/11/14 05:34:26;;;;;;;38.70;18.83;;;;;;;8.14;100.00;101181.66;5145449;28;20117;-82
2021/11/14 05:36:56;;;;;;;39.88;19.85;;;;;;;8.12;100.00;101183.44;5172449;28;20515;-81
2021/11/14 05:39:27;;;;;;;36.15;18.50;;;;;;;8.24;100.00;101187.59;5152730;28;20038;-82
2021/11/14 05:41:57;;;;;;;37.97;19.40;;;;;;;8.20;100.00;101197.19;5149941;28;20029;-82
2021/11/14 05:44:27;;;;;;;40.40;18.63;;;;;;;8.17;100.00;101196.34;5174997;28;20041;-82
2021/11/14 05:46:58;;;;;;;43.72;19.75;;;;;;;8.14;100.00;101194.66;5171997;28;20034;-82
2021/11/14 05:49:28;;;;;;;42.55;19.75;;;;;;;8.10;100.00;101198.22;5157295;28;20087;-82
2021/11/14 05:51:59;;;;;;;39.70;18.35;;;;;;;8.25;100.00;101200.56;5154163;28;20057;-82
2021/11/14 05:54:29;;;;;;;36.85;18.63;;;;;;;8.05;100.00;101204.38;5157172;28;20060;-82
2021/11/14 05:57:00;;;;;;;31.63;17.77;;;;;;;8.18;100.00;101206.78;5171730;28;20030;-82
2021/11/14 06:02:39;;;;;;;;;;;;;;;8.21;100.00;101211.94;5137889;28;21006;-82
2021/11/14 06:07:41;;;;;;;38.13;17.75;;;;;;;8.11;100.00;101218.16;5177826;28;20030;-82
2021/11/14 06:10:13;;;;;;;33.08;17.67;;;;;;;8.09;100.00;101227.75;5160357;28;20476;-82
2021/11/14 06:12:46;;;;;;;37.20;18.40;;;;;;;8.08;100.00;101233.78;5162741;28;20189;-82
2021/11/14 06:15:19;;;;;;;33.83;18.10;;;;;;;8.27;100.00;101235.28;5161417;28;20125;-82
2021/11/14 06:17:51;;;;;;;31.60;17.20;;;;;;;8.21;100.00;101235.38;5162916;28;20022;-82
2021/11/14 06:20:22;;;;;;;34.97;17.85;;;;;;;8.21;100.00;101245.78;5178614;28;20488;-82
2021/11/14 06:22:53;;;;;;;39.65;18.42;;;;;;;8.11;100.00;101253.72;5163252;28;20029;-81
2021/11/14 06:25:23;;;;;;;38.47;18.30;;;;;;;8.02;100.00;101251.28;5159998;28;20029;-82
2021/11/14 06:27:53;;;;;;;37.95;17.83;;;;;;;8.14;100.00;101262.34;5157059;28;20109;-82
2021/11/14 06:30:24;;;;;;;36.33;17.60;;;;;;;8.01;100.00;101262.56;5179022;28;20021;-82
2021/11/14 06:32:56;;;;;;;38.60;17.67;;;;;;;7.97;100.00;101273.88;5150443;28;20462;-82
2021/11/14 06:35:26;;;;;;;38.08;18.60;;;;;;;7.95;100.00;101278.25;5152295;28;20044;-82
2021/11/14 06:37:56;;;;;;;38.15;18.25;;;;;;;7.90;100.00;101286.09;5171273;28;20030;-82
2021/11/14 06:40:28;;;;;;;32.47;17.98;;;;;;;7.96;100.00;101287.78;5154771;28;20120;-82
2021/11/14 06:42:58;;;;;;;35.22;17.52;;;;;;;7.81;100.00;101291.44;5158586;28;20227;-82
2021/11/14 06:45:28;;;;;;;38.50;18.98;;;;;;;7.71;100.00;101300.25;5160391;28;20044;-82
2021/11/14 06:47:59;;;;;;;39.33;19.48;;;;;;;7.71;100.00;101296.78;5157513;28;20431;-82
2021/11/14 06:50:30;;;;;;;42.03;19.73;;;;;;;7.74;100.00;101302.78;5173361;28;20035;-82
2021/11/14 06:53:08;;;;;;;42.63;20.70;;;;;;;7.73;100.00;101306.28;5162200;28;20030;-82
2021/11/14 06:55:45;;;;;;;39.92;19.58;;;;;;;7.77;100.00;101315.81;5179727;28;20034;-82
2021/11/14 06:58:22;;;;;;;38.22;19.73;;;;;;;7.76;100.00;101311.47;5162694;28;20060;-82
2021/11/14 07:01:22;;;;;;;42.83;20.13;;;;;;;7.77;100.00;101314.91;5161354;28;20045;-82
2021/11/14 07:03:52;;;;;;;;;;;;;;;7.79;100.00;101316.63;5180226;28;20436;-82
2021/11/14 07:06:22;;;;;;;39.15;18.55;;;;;;;7.84;100.00;101317.44;5157647;28;19928;-82
2021/11/14 07:08:53;;;;;;;40.55;20.52;;;;;;;7.76;100.00;101329.69;5157049;28;20030;-82
2021/11/14 07:11:23;;;;;;;36.42;19.17;;;;;;;7.84;100.00;101334.81;5158171;28;20017;-81
2021/11/14 07:14:04;;;;;;;40.88;19.10;;;;;;;7.79;100.00;101333.97;5177529;28;20086;-82
2021/11/14 07:16:34;;;;;;;43.95;19.80;;;;;;;7.82;100.00;101337.41;5150412;28;20026;-82
2021/11/14 07:19:05;;;;;;;40.63;18.85;;;;;;;7.83;100.00;101340.84;5168536;28;20030;-82
2021/11/14 07:21:35;;;;;;;36.20;19.30;;;;;;;7.76;100.00;101340.09;5153231;28;20030;-82
2021/11/14 07:24:06;;;;;;;39.08;19.75;;;;;;;7.73;100.00;101342.69;5179710;28;20397;-82
2021/11/14 07:26:36;;;;;;;47.95;19.67;;;;;;;7.82;100.00;101345.22;5173888;28;20037;-82
2021/11/14 07:29:07;;;;;;;42.90;20.25;;;;;;;7.90;100.00;101345.97;5167975;28;20022;-82
2021/11/14 07:31:37;;;;;;;41.38;18.83;;;;;;;7.83;100.00;101349.53;5153849;28;20036;-82
2021/11/14 07:34:08;;;;;;;37.53;18.35;;;;;;;7.82;100.00;101350.41;5171018;28;20108;-81
2021/11/14 07:36:38;;;;;;;41.30;20.52;;;;;;;7.78;100.00;101356.53;5173365;28;20030;-82
2021/11/14 07:39:08;;;;;;;41.25;19.88;;;;;;;7.84;100.00;101364.28;5152525;28;20053;-82
2021/11/14 07:41:39;;;;;;;40.20;20.27;;;;;;;7.83;100.00;101366.88;5156720;28;20034;-82
2021/11/14 07:44:09;;;;;;;44.38;19.52;;;;;;;7.76;100.00;101373.91;5158073;28;20107;-81
2021/11/14 07:46:39;;;;;;;41.42;21.08;;;;;;;7.74;100.00;101380.84;5174604;28;20046;-82
2021/11/14 07:49:10;;;;;;;39.80;19.33;;;;;;;7.77;100.00;101375.63;5174655;28;20021;-82
2021/11/14 07:51:40;;;;;;;39.88;20.48;;;;;;;7.77;100.00;101378.25;5174927;28;20045;-82
2021/11/14 07:54:11;;;;;;;45.03;20.25;;;;;;;7.80;100.00;101383.41;5173809;28;20037;-81
2021/11/14 07:56:41;;;;;;;46.38;21.40;;;;;;;7.79;100.00;101386.88;5156796;28;20023;-81
2021/11/14 07:59:12;;;;;;;39.03;20.40;;;;;;;7.78;100.00;101387.78;5170917;28;20069;-82
2021/11/14 08:01:42;;;;;;;41.75;19.67;;;;;;;7.88;100.00;101391.97;5167965;28;20096;-82
2021/11/14 08:04:13;;;;;;;40.33;19.33;;;;;;;7.91;100.00;101397.13;5165382;28;20384;-82
2021/11/14 08:06:44;;;;;;;43.00;20.35;;;;;;;7.84;100.00;101402.47;5172732;28;20354;-82
2021/11/14 08:09:14;;;;;;;39.08;20.23;;;;;;;7.83;100.00;101400.69;5147631;28;20061;-82
2021/11/14 08:11:44;;;;;;;48.20;22.60;;;;;;;7.81;100.00;101405.06;5169795;28;20516;-82
2021/11/14 08:14:16;;;;;;;39.42;19.88;;;;;;;7.93;100.00;101415.34;5173891;28;20026;-81
2021/11/14 08:16:47;;;;;;;42.60;20.23;;;;;;;7.88;100.00;101406.75;5157090;28;20026;-82
2021/11/14 08:19:17;;;;;;;45.85;20.02;;;;;;;8.02;100.00;101417.84;5173391;28;20380;-81
2021/11/14 08:21:47;;;;;;;44.80;20.95;;;;;;;7.87;100.00;101418.03;5175057;28;20057;-81
2021/11/14 08:24:18;;;;;;;40.25;20.35;;;;;;;7.88;100.00;101420.59;5154376;28;20045;-81
2021/11/14 08:26:48;;;;;;;39.42;20.52;;;;;;;7.89;100.00;101422.31;5154358;28;20038;-81
2021/11/14 08:29:19;;;;;;;44.72;21.42;;;;;;;7.84;100.00;101426.72;5155510;28;20049;-81
2021/11/14 08:31:49;;;;;;;42.67;20.67;;;;;;;7.91;100.00;101423.16;5159352;28;20037;-81
2021/11/14 08:34:20;;;;;;;46.33;21.67;;;;;;;7.83;100.00;101435.41;5145522;28;20047;-82
2021/11/14 08:36:51;;;;;;;43.03;21.08;;;;;;;7.82;100.00;101438.88;5141854;28;20027;-82
2021/11/14 08:39:21;;;;;;;48.50;22.23;;;;;;;7.87;100.00;101441.44;5142494;28;20109;-81
2021/11/14 08:41:52;;;;;;;44.10;21.75;;;;;;;7.88;100.00;101449.22;5148207;28;20032;-81
2021/11/14 08:44:25;;;;;;;46.15;22.00;;;;;;;8.01;100.00;101450.81;5155218;28;20022;-82
2021/11/14 08:46:56;;;;;;;45.75;22.17;;;;;;;7.93;100.00;101452.66;5160731;28;20395;-81
2021/11/14 08:49:26;;;;;;;44.25;21.08;;;;;;;7.89;100.00;101457.91;5156121;28;20033;-82
2021/11/14 08:51:56;;;;;;;45.40;20.95;;;;;;;7.97;100.00;101463.88;5158480;28;20026;-83
2021/11/14 08:54:27;;;;;;;41.42;20.38;;;;;;;7.96;100.00;101463.03;5172426;28;20045;-83
2021/11/14 08:56:57;;;;;;;42.85;21.40;;;;;;;8.03;100.00;101464.69;5150368;28;20032;-83
2021/11/14 08:59:31;;;;;;;43.97;21.30;;;;;;;7.88;100.00;101467.44;5174878;28;20558;-82
2021/11/14 09:02:02;;;;;;;42.60;20.40;;;;;;;7.97;100.00;101472.56;5162125;28;20030;-82
2021/11/14 09:04:32;;;;;;;45.78;21.77;;;;;;;7.90;100.00;101476.09;5180882;28;20060;-82
2021/11/14 09:07:03;;;;;;;40.55;20.95;;;;;;;7.98;100.00;101474.28;5157854;28;20026;-82
2021/11/14 09:09:36;;;;;;;43.63;20.70;;;;;;;7.96;100.00;101476.03;5171482;28;20383;-83
2021/11/14 09:12:08;;;;;;;40.40;20.15;;;;;;;7.95;100.00;101479.53;5158615;28;20396;-82
2021/11/14 09:14:40;;;;;;;42.08;20.48;;;;;;;7.97;100.00;101480.38;5153569;28;20038;-82
2021/11/14 09:17:11;;;;;;;40.90;20.75;;;;;;;7.98;100.00;101494.22;5177077;28;20049;-83
2021/11/14 09:19:42;;;;;;;39.17;20.58;;;;;;;7.97;100.00;101490.78;5160681;28;20257;-83
2021/11/14 09:22:15;;;;;;;41.65;20.98;;;;;;;8.00;100.00;101500.28;5144662;28;20121;-83
2021/11/14 09:24:46;;;;;;;40.72;19.95;;;;;;;8.05;100.00;101499.34;5170913;28;20026;-83
2021/11/14 09:27:17;;;;;;;43.08;20.80;;;;;;;8.02;100.00;101503.75;5157030;28;20026;-83
2021/11/14 09:29:47;;;;;;;39.10;20.13;;;;;;;8.12;100.00;101501.03;5174688;28;20030;-83
2021/11/14 09:32:18;;;;;;;38.17;19.35;;;;;;;8.07;100.00;101507.16;5166114;28;20021;-83
2021/11/14 09:34:49;;;;;;;40.97;21.17;;;;;;;8.00;100.00;101501.16;5153673;28;20022;-83
2021/11/14 09:37:19;;;;;;;39.95;19.60;;;;;;;8.00;100.00;101516.78;5156636;28;20400;-81
2021/11/14 09:39:49;;;;;;;41.53;20.83;;;;;;;7.96;100.00;101512.47;5155543;28;20033;-83
2021/11/14 09:42:24;;;;;;;42.10;21.05;;;;;;;7.92;100.00;101518.59;5159259;28;20032;-83
2021/11/14 09:44:55;;;;;;;46.23;21.47;;;;;;;7.88;100.00;101511.69;5157212;28;20109;-83
2021/11/14 09:47:25;;;;;;;42.33;21.40;;;;;;;7.92;100.00;101521.22;5172990;28;20348;-82
2021/11/14 09:49:58;;;;;;;41.42;20.45;;;;;;;7.94;100.00;101522.06;5162693;28;20043;-82
2021/11/14 09:52:28;;;;;;;49.22;20.45;;;;;;;7.97;100.00;101529.81;5173860;28;20297;-82
2021/11/14 09:55:02;;;;;;;40.75;20.02;;;;;;;8.10;100.00;101531.44;5183204;28;20030;-82
2021/11/14 09:57:32;;;;;;;49.85;20.88;;;;;;;8.05;100.00;101529.75;5164576;28;20153;-82
2021/11/14 10:00:08;;;;;;;42.90;20.23;;;;;;;8.11;100.00;101533.16;5162576;28;20026;-83
2021/11/14 10:02:39;;;;;;;47.55;20.85;;;;;;;8.11;100.00;101535.75;5160051;28;20080;-82
2021/11/14 10:05:12;;;;;;;39.80;19.52;;;;;;;8.11;100.00;101543.56;5162852;28;20610;-83
2021/11/14 10:08:02;;;;;;;40.83;20.23;;;;;;;8.05;100.00;101541.00;5182501;28;20646;-83
2021/11/14 10:10:44;;;;;;;42.10;19.63;;;;;;;8.15;100.00;101542.66;5156568;28;20059;-82
2021/11/14 10:13:24;;;;;;;43.70;20.38;;;;;;;8.29;100.00;101535.59;5163625;28;20026;-82
2021/11/14 10:16:25;;;;;;;41.67;20.45;;;;;;;8.00;100.00;101542.81;5179617;28;20029;-82
2021/11/14 10:19:06;;;;;;;43.10;20.13;;;;;;;8.01;100.00;101541.94;5160533;28;20069;-83
2021/11/14 10:21:36;;;;;;;43.63;19.85;;;;;;;8.11;100.00;101540.97;5159541;28;20064;-83
2021/11/14 10:24:10;;;;;;;45.92;20.63;;;;;;;8.10;100.00;101544.44;5162951;28;20029;-83
2021/11/14 10:26:40;;;;;;;44.92;19.95;;;;;;;8.07;100.00;101549.66;5159687;28;20038;-81
2021/11/14 10:29:14;;;;;;;47.10;20.83;;;;;;;8.11;100.00;101555.72;5173120;28;20037;-83
2021/11/14 10:31:45;;;;;;;43.70;19.98;;;;;;;8.16;100.00;101560.00;5157581;28;20026;-82
2021/11/14 10:34:17;;;;;;;46.80;21.92;;;;;;;8.08;100.00;101556.59;5158672;28;20476;-83
2021/11/14 10:36:55;;;;;;;45.03;20.88;;;;;;;8.12;100.00;101558.31;5176227;28;20092;-82
2021/11/14 10:39:39;;;;;;;40.63;20.38;;;;;;;8.19;100.00;101561.75;5157232;28;20037;-82
2021/11/14 10:42:15;;;;;;;44.72;20.75;;;;;;;8.20;100.00;101568.69;5155731;28;20022;-82
2021/11/14 10:44:50;;;;;;;43.28;20.90;;;;;;;8.29;100.00;101569.44;5154001;28;20064;-81
2021/11/14 10:47:22;;;;;;;43.08;20.38;;;;;;;8.39;100.00;101559.78;5154569;28;20567;-82
2021/11/14 10:50:08;;;;;;;44.78;20.27;;;;;;;8.58;100.00;101563.91;5174128;28;20053;-81
2021/11/14 10:52:56;;;;;;;46.67;19.75;;;;;;;8.47;100.00;101561.44;5149525;28;20052;-83
2021/11/14 10:55:30;;;;;;;41.33;19.40;;;;;;;8.65;100.00;101560.34;5151297;28;20038;-83
2021/11/14 10:58:01;;;;;;;46.10;21.10;;;;;;;8.47;100.00;101561.44;5186400;23;20474;-79
2021/11/14 11:00:31;;;;;;;40.17;19.52;;;;;;;8.48;100.00;101567.50;5207658;28;20539;-79
2021/11/14 11:03:03;;;;;;;49.95;20.60;;;;;;;8.30;100.00;101573.78;5205722;28;20025;-79
2021/11/14 11:05:34;;;;;;;47.88;19.80;;;;;;;8.48;100.00;101567.50;5211666;28;20051;-79
2021/11/14 11:08:25;;;;;;;38.67;19.02;;;;;;;8.36;100.00;101573.69;5209180;28;20034;-79
2021/11/14 11:10:58;;;;;;;43.88;19.60;;;;;;;8.26;100.00;101579.03;5214208;28;20033;-79
2021/11/14 11:13:41;;;;;;;42.60;19.23;;;;;;;8.25;100.00;101580.75;5208694;28;20033;-79
2021/11/14 11:16:18;;;;;;;42.38;19.70;;;;;;;8.26;100.00;101577.31;5212641;28;20028;-79
2021/11/14 11:19:11;;;;;;;52.50;20.88;;;;;;;7.97;100.00;101581.00;5214514;28;20048;-79
2021/11/14 11:21:48;;;;;;;47.63;20.27;;;;;;;8.03;100.00;101567.94;5208397;28;20479;-79
2021/11/14 11:24:20;;;;;;;48.38;20.40;;;;;;;8.25;100.00;101569.50;5209125;28;20191;-79
2021/11/14 11:27:08;;;;;;;48.38;20.60;;;;;;;8.13;100.00;101567.84;5211489;28;20040;-79
2021/11/14 11:29:40;;;;;;;53.30;21.63;;;;;;;8.03;100.00;101570.56;5207043;28;20395;-79
2021/11/14 11:32:12;;;;;;;51.20;22.05;;;;;;;8.06;100.00;101573.13;5206371;28;20043;-79
2021/11/14 11:34:45;;;;;;;50.08;21.45;;;;;;;8.10;100.00;101570.47;5203553;28;20033;-79
2021/11/14 11:37:15;;;;;;;48.72;21.98;;;;;;;8.02;100.00;101571.44;5208812;28;20475;-79
2021/11/14 11:39:45;;;;;;;47.30;21.80;;;;;;;8.20;100.00;101577.34;5202963;28;20032;-78